This is the latest recevied weather packets stored in our database for station/object KG6QHD-13. If no packets are shown the sender has not sent any weather packets the latest 10 day(s).
| Time | Temp. | Humidity | Pressure | Rain* | Wind** | Luminosity | Snow |
|---|---|---|---|---|---|---|---|
| 1778022063 | 0.56° C | 92% | 1012.5 hPa | 0.51 mm | - | 39 W/m² | - |
| 1778021751 | 0.56° C | 92% | 1012.4 hPa | 0.51 mm | - | 35 W/m² | - |
| 1778019948 | 0.56° C | 92% | 1012.1 hPa | 1.02 mm | - | 67 W/m² | - |
| 1778019649 | 0.56° C | 92% | 1012.1 hPa | 1.02 mm | - | 69 W/m² | - |
| 1778019357 | 0.56° C | 91% | 1012 hPa | 1.27 mm | - | 70 W/m² | - |
| 1778018453 | 0.56° C | 91% | 1012.2 hPa | 1.27 mm | - | 76 W/m² | - |
| 1778017553 | 0.56° C | 91% | 1012.3 hPa | 1.52 mm | - | 116 W/m² | - |
| 1778017249 | 0.56° C | 91% | 1012.4 hPa | 1.52 mm | - | 130 W/m² | - |
| 1778016344 | 0.56° C | 91% | 1012.6 hPa | 1.27 mm | - | 135 W/m² | - |
| 1778015752 | 0.56° C | 91% | 1012.8 hPa | 1.27 mm | - | 149 W/m² | - |
| 1778014852 | 0.56° C | 91% | 1012.8 hPa | 1.52 mm | - | 98 W/m² | - |
| 1778014249 | 0.56° C | 91% | 1013 hPa | 1.27 mm | - | 144 W/m² | - |
| 1778009149 | 1.11° C | 90% | 1013.5 hPa | 0.51 mm | - | 127 W/m² | - |
| 1778007950 | 1.11° C | 90% | 1013.6 hPa | 0.25 mm | - | 107 W/m² | - |
| 1778005859 | 1.11° C | 90% | 1013.9 hPa | 0.25 mm | - | 134 W/m² | - |
| 1778005247 | 0.56° C | 90% | 1014.1 hPa | 0.25 mm | - | 162 W/m² | - |
| 1778001644 | 0.56° C | 90% | 1014.7 hPa | 0 mm | - | 107 W/m² | - |
| 1777999559 | 0.56° C | 90% | 1014.7 hPa | 0 mm | - | 74 W/m² | - |
| 1777998948 | 0.56° C | 90% | 1014.7 hPa | 0 mm | - | 76 W/m² | - |
| 1777997445 | 0° C | 90% | 1014.9 hPa | 0 mm | - | 56 W/m² | - |
| 1777995648 | 0.56° C | 89% | 1014.9 hPa | 0 mm | - | 47 W/m² | - |
| 1777994448 | 0.56° C | 88% | 1014.8 hPa | 0 mm | - | 37 W/m² | - |
| 1777994157 | 0.56° C | 88% | 1014.8 hPa | 0 mm | - | 35 W/m² | - |
| 1777991745 | 1.11° C | 89% | 1015 hPa | 0 mm | - | 37 W/m² | - |
| 1777991459 | 1.11° C | 89% | 1014.9 hPa | 0 mm | - | 25 W/m² | - |
* Rain latest hour (hover to see other rain measurements)
** Current wind speed in m/s (hover to see current wind gust speed)